createdAt,value
2023-04-02T00:00:39.006Z,99081.70
2023-04-02T00:03:10.663Z,99083.43
2023-04-02T00:05:52.416Z,99085.23
2023-04-02T00:08:22.388Z,99082.30
2023-04-02T00:10:59.941Z,99081.14
2023-04-02T00:13:42.208Z,99084.77
2023-04-02T00:16:17.747Z,99084.98
2023-04-02T00:18:50.537Z,99088.66
2023-04-02T00:52:48.913Z,99088.76
2023-04-02T00:55:25.302Z,99087.59
2023-04-02T00:57:54.489Z,99093.71
2023-04-02T01:00:23.943Z,99098.40
2023-04-02T01:03:16.904Z,99099.38
2023-04-02T01:05:48.761Z,99100.57
2023-04-02T01:08:38.039Z,99099.09
2023-04-02T01:11:25.041Z,99102.52
2023-04-02T01:13:54.308Z,99103.02
2023-04-02T01:16:37.008Z,99096.96
2023-04-02T01:19:10.901Z,99097.02
2023-04-02T01:22:07.757Z,99099.98
2023-04-02T01:24:41.491Z,99101.38
2023-04-02T01:27:16.369Z,99101.91
2023-04-02T01:29:49.061Z,99098.34
2023-04-02T01:32:18.828Z,99100.20
2023-04-02T01:34:47.856Z,99100.48
2023-04-02T01:37:32.741Z,99104.14
2023-04-02T01:40:06.638Z,99101.02
2023-04-02T01:42:44.596Z,99100.13
2023-04-02T01:45:15.195Z,99096.46
2023-04-02T01:47:44.974Z,99095.71
2023-04-02T01:50:20.468Z,99098.43
2023-04-02T01:52:51.367Z,99099.67
2023-04-02T01:55:30.527Z,99101.58
2023-04-02T01:58:01.369Z,99101.88
2023-04-02T02:00:36.843Z,99102.06
2023-04-02T02:03:06.900Z,99103.35
2023-04-02T02:05:38.450Z,99102.48
2023-04-02T02:08:13.854Z,99102.49
2023-04-02T02:10:43.988Z,99104.02
2023-04-02T02:13:16.851Z,99101.93
2023-04-02T02:15:51.531Z,99106.95
2023-04-02T02:18:23.994Z,99104.94
2023-04-02T02:20:54.821Z,99103.83
2023-04-02T02:23:24.389Z,99103.16
2023-04-02T02:25:54.632Z,99104.00
2023-04-02T02:28:28.216Z,99106.09
2023-04-02T02:30:58.802Z,99103.72
2023-04-02T02:33:37.361Z,99102.73
2023-04-02T02:36:07.781Z,99103.64
2023-04-02T02:38:42.703Z,99103.38
2023-04-02T02:41:42.442Z,99102.52
2023-04-02T02:44:14.880Z,99103.82
2023-04-02T02:46:45.815Z,99106.14
2023-04-02T02:49:16.461Z,99104.77
2023-04-02T02:51:50.536Z,99106.63
2023-04-02T02:54:22.861Z,99110.36
2023-04-02T02:56:54.083Z,99115.22
2023-04-02T02:59:23.659Z,99114.14
2023-04-02T03:01:52.738Z,99113.73
2023-04-02T03:04:23.152Z,99114.86
2023-04-02T03:06:53.279Z,99115.56
2023-04-02T03:09:23.526Z,99115.36
2023-04-02T03:12:03.571Z,99117.81
2023-04-02T03:14:38.890Z,99119.98
2023-04-02T03:17:34.398Z,99117.12
2023-04-02T03:20:12.043Z,99120.92
2023-04-02T03:22:48.371Z,99123.42
2023-04-02T03:25:21.117Z,99128.40
2023-04-02T03:27:50.367Z,99127.65
2023-04-02T03:30:23.299Z,99131.72
2023-04-02T03:32:53.249Z,99129.89
2023-04-02T03:35:25.575Z,99131.80
2023-04-02T03:38:03.227Z,99134.33
2023-04-02T03:40:33.938Z,99135.48
2023-04-02T03:43:23.478Z,99136.43
2023-04-02T03:45:56.526Z,99135.65
2023-04-02T03:48:31.918Z,99138.98
2023-04-02T03:51:02.690Z,99143.01
2023-04-02T03:53:33.322Z,99145.80
2023-04-02T03:56:02.891Z,99149.41
2023-04-02T03:58:39.813Z,99149.62
2023-04-02T04:01:10.146Z,99149.54
2023-04-02T04:03:49.797Z,99151.55
2023-04-02T04:06:24.802Z,99154.13
2023-04-02T04:08:59.694Z,99153.49
2023-04-02T04:11:36.390Z,99157.02
2023-04-02T04:14:19.798Z,99161.52
2023-04-02T04:16:56.539Z,99164.52
2023-04-02T04:19:30.828Z,99165.14
2023-04-02T04:22:10.397Z,99164.31
2023-04-02T04:24:40.069Z,99169.02
2023-04-02T04:27:12.505Z,99170.81
2023-04-02T04:29:54.076Z,99172.23
2023-04-02T04:32:42.731Z,99172.84
2023-04-02T04:35:28.395Z,99171.94
2023-04-02T04:38:28.651Z,99174.05
2023-04-02T04:41:05.448Z,99176.46
2023-04-02T04:43:41.545Z,99175.48
2023-04-02T04:46:50.487Z,99177.61
2023-04-02T04:49:19.933Z,99180.35
2023-04-02T04:51:54.278Z,99178.62
2023-04-02T04:54:26.507Z,99180.21
2023-04-02T04:57:02.693Z,99180.43
2023-04-02T04:59:33.571Z,99181.65
2023-04-02T05:02:06.404Z,99185.63
2023-04-02T05:04:37.402Z,99184.26
2023-04-02T05:07:14.936Z,99188.90
2023-04-02T05:09:46.889Z,99192.04
2023-04-02T05:12:28.896Z,99191.91
2023-04-02T05:15:00.011Z,99189.07
2023-04-02T05:17:30.358Z,99190.44
2023-04-02T05:20:01.609Z,99194.36
2023-04-02T05:22:31.739Z,99192.11
2023-04-02T05:25:18.868Z,99193.75
2023-04-02T05:27:59.280Z,99192.67
2023-04-02T05:30:55.149Z,99193.54
2023-04-02T05:33:29.159Z,99193.71
2023-04-02T05:36:01.657Z,99197.39
2023-04-02T05:38:36.578Z,99199.70
2023-04-02T05:41:12.940Z,99202.17
2023-04-02T05:43:45.099Z,99199.61
2023-04-02T05:46:16.716Z,99197.79
2023-04-02T05:48:48.659Z,99198.07
2023-04-02T05:51:24.378Z,99199.96
2023-04-02T05:53:57.453Z,99200.95
2023-04-02T05:56:29.039Z,99201.59
2023-04-02T05:59:04.467Z,99201.28
2023-04-02T06:01:56.493Z,99209.81
2023-04-02T06:04:38.662Z,99209.35
2023-04-02T06:07:14.109Z,99211.02
2023-04-02T06:09:49.550Z,99213.48
2023-04-02T06:12:28.815Z,99214.74
2023-04-02T06:14:58.613Z,99218.55
2023-04-02T06:17:31.551Z,99219.05
2023-04-02T06:20:00.897Z,99220.16
2023-04-02T06:22:35.905Z,99221.27
2023-04-02T06:25:14.254Z,99224.16
2023-04-02T06:27:46.061Z,99230.44
2023-04-02T06:30:36.272Z,99230.51
2023-04-02T06:33:17.455Z,99229.80
2023-04-02T06:35:49.452Z,99231.59
2023-04-02T06:38:26.178Z,99235.15
2023-04-02T06:41:01.737Z,99234.55
2023-04-02T06:43:48.286Z,99238.13
2023-04-02T06:46:47.346Z,99243.22
2023-04-02T06:49:24.909Z,99242.73
2023-04-02T06:52:00.818Z,99242.08
2023-04-02T06:54:33.658Z,99239.08
2023-04-02T06:57:07.164Z,99242.56
2023-04-02T06:59:43.700Z,99242.71
2023-04-02T07:02:33.790Z,99247.14
2023-04-02T07:05:06.774Z,99250.27
2023-04-02T07:07:37.988Z,99255.33
2023-04-02T07:10:12.731Z,99255.02
2023-04-02T07:12:42.186Z,99255.80
2023-04-02T07:15:17.014Z,99258.08
2023-04-02T07:17:47.117Z,99260.02
2023-04-02T07:20:24.725Z,99260.98
2023-04-02T07:22:54.980Z,99263.23
2023-04-02T07:25:24.752Z,99263.67
2023-04-02T07:27:54.342Z,99264.50
2023-04-02T07:30:23.356Z,99269.48
2023-04-02T07:32:53.686Z,99268.95
2023-04-02T07:35:27.885Z,99270.52
2023-04-02T07:38:00.143Z,99273.23
2023-04-02T07:40:30.577Z,99271.65
2023-04-02T07:42:59.830Z,99268.41
2023-04-02T07:45:30.130Z,99269.66
2023-04-02T07:47:59.444Z,99269.95
2023-04-02T07:50:28.823Z,99269.42
2023-04-02T07:53:00.726Z,99270.54
2023-04-02T07:55:33.490Z,99273.90
2023-04-02T07:58:03.849Z,99272.77
2023-04-02T08:00:33.733Z,99275.15
2023-04-02T08:03:23.999Z,99277.83
2023-04-02T08:05:55.396Z,99278.86
2023-04-02T08:08:24.840Z,99278.11
2023-04-02T08:10:56.152Z,99277.65
2023-04-02T08:13:26.287Z,99278.05
2023-04-02T08:15:55.582Z,99279.59
2023-04-02T08:18:24.872Z,99280.38
2023-04-02T08:20:54.988Z,99276.59
2023-04-02T08:23:24.235Z,99278.02
2023-04-02T08:25:54.134Z,99282.63
2023-04-02T08:28:23.528Z,99279.42
2023-04-02T08:30:57.505Z,99283.74
2023-04-02T08:33:28.289Z,99289.56
2023-04-02T08:35:57.385Z,99286.52
2023-04-02T08:38:31.330Z,99288.50
2023-04-02T08:41:00.837Z,99290.51
2023-04-02T08:43:29.787Z,99291.63
2023-04-02T08:46:05.242Z,99294.36
2023-04-02T08:48:35.284Z,99296.30
2023-04-02T08:51:04.265Z,99298.59
2023-04-02T08:53:36.161Z,99300.96
2023-04-02T08:56:06.278Z,99302.30
2023-04-02T08:58:35.225Z,99305.89
2023-04-02T09:01:05.943Z,99305.59
2023-04-02T09:03:38.984Z,99307.40
2023-04-02T09:06:10.544Z,99309.14
2023-04-02T09:08:41.260Z,99310.19
2023-04-02T09:11:10.643Z,99313.34
2023-04-02T09:13:47.936Z,99314.77
2023-04-02T09:16:23.753Z,99318.73
2023-04-02T09:18:53.399Z,99316.67
2023-04-02T09:21:23.186Z,99317.21
2023-04-02T09:23:53.024Z,99316.44
2023-04-02T09:26:23.471Z,99317.67
2023-04-02T09:28:56.484Z,99319.21
2023-04-02T09:31:28.761Z,99320.63
2023-04-02T09:33:59.125Z,99323.33
2023-04-02T09:36:37.544Z,99326.56
2023-04-02T09:39:16.545Z,99326.90
2023-04-02T09:41:50.219Z,99327.88
2023-04-02T09:44:28.504Z,99331.33
2023-04-02T09:47:04.356Z,99334.55
2023-04-02T09:49:35.005Z,99334.16
2023-04-02T09:52:13.506Z,99332.05
2023-04-02T09:54:43.350Z,99336.02
2023-04-02T09:57:24.682Z,99338.48
2023-04-02T10:02:47.522Z,99340.14
2023-04-02T10:05:30.102Z,99341.06
2023-04-02T10:08:17.565Z,99336.71
2023-04-02T10:10:48.340Z,99339.04
2023-04-02T10:13:20.044Z,99336.98
2023-04-02T10:15:49.060Z,99340.30
2023-04-02T10:18:26.721Z,99344.37
2023-04-02T10:20:59.805Z,99342.27
2023-04-02T10:23:30.189Z,99342.77
2023-04-02T10:26:09.001Z,99345.36
2023-04-02T10:28:51.484Z,99350.61
2023-04-02T10:31:25.748Z,99353.84
2023-04-02T10:33:59.464Z,99359.65
2023-04-02T10:36:48.946Z,99358.30
2023-04-02T10:39:21.341Z,99360.13
2023-04-02T10:42:22.484Z,99361.34
2023-04-02T10:45:00.383Z,99362.77
2023-04-02T10:47:53.711Z,99363.67
2023-04-02T10:50:33.745Z,99361.52
2023-04-02T10:53:09.484Z,99360.82
2023-04-02T10:55:44.324Z,99357.89
2023-04-02T10:58:34.957Z,99357.36
2023-04-02T11:01:08.775Z,99363.88
2023-04-02T11:03:59.239Z,99360.99
2023-04-02T11:06:44.615Z,99364.64
2023-04-02T11:09:17.242Z,99364.63
2023-04-02T11:11:47.194Z,99364.27
2023-04-02T11:14:20.274Z,99363.02
2023-04-02T11:16:50.955Z,99360.90
2023-04-02T11:19:20.073Z,99365.20
2023-04-02T11:22:02.537Z,99367.77
2023-04-02T11:24:50.214Z,99369.57
2023-04-02T11:27:31.915Z,99370.94
2023-04-02T11:30:07.056Z,99369.84
2023-04-02T11:32:41.023Z,99371.08
2023-04-02T11:35:27.476Z,99376.83
2023-04-02T11:38:01.014Z,99379.91
2023-04-02T11:40:45.039Z,99375.52
2023-04-02T11:43:32.256Z,99374.84
2023-04-02T11:46:01.288Z,99378.09
2023-04-02T11:48:31.637Z,99377.52
2023-04-02T11:51:05.798Z,99381.96
2023-04-02T11:53:35.046Z,99380.95
2023-04-02T11:56:09.624Z,99381.63
2023-04-02T11:58:47.937Z,99385.04
2023-04-02T12:01:35.637Z,99384.64
2023-04-02T12:04:07.841Z,99385.33
2023-04-02T12:06:55.235Z,99387.39
2023-04-02T12:09:32.372Z,99384.65
2023-04-02T12:12:01.833Z,99382.85
2023-04-02T12:14:37.012Z,99383.92
2023-04-02T12:17:09.331Z,99382.91
2023-04-02T12:19:46.776Z,99384.72
2023-04-02T12:22:22.230Z,99384.42
2023-04-02T12:24:51.312Z,99387.09
2023-04-02T12:27:23.175Z,99391.73
2023-04-02T12:29:53.001Z,99392.86
2023-04-02T12:32:31.898Z,99397.48
2023-04-02T12:35:02.149Z,99393.08
2023-04-02T12:37:31.250Z,99393.63
2023-04-02T12:40:06.652Z,99394.73
2023-04-02T12:42:37.097Z,99394.72
2023-04-02T12:45:12.237Z,99395.36
2023-04-02T12:47:44.798Z,99394.34
2023-04-02T12:50:15.438Z,99394.17
2023-04-02T12:52:44.680Z,99395.02
2023-04-02T12:55:26.400Z,99394.89
2023-04-02T12:57:58.554Z,99396.33
2023-04-02T13:00:29.791Z,99396.19
2023-04-02T13:03:00.013Z,99396.20
2023-04-02T13:05:48.420Z,99396.21
2023-04-02T13:08:23.611Z,99399.67
2023-04-02T13:10:54.053Z,99396.23
2023-04-02T13:13:27.592Z,99391.74
2023-04-02T13:16:07.139Z,99392.82
2023-04-02T13:18:39.304Z,99390.31
2023-04-02T13:21:17.822Z,99392.20
2023-04-02T13:23:47.104Z,99391.05
2023-04-02T13:26:23.012Z,99390.15
2023-04-02T13:28:57.675Z,99391.63
2023-04-02T13:31:28.311Z,99389.20
2023-04-02T13:33:57.531Z,99391.11
2023-04-02T13:36:30.134Z,99394.42
2023-04-02T13:38:59.475Z,99392.98
2023-04-02T13:41:29.395Z,99390.34
2023-04-02T13:44:01.355Z,99392.51
2023-04-02T13:46:34.452Z,99391.63
2023-04-02T13:49:04.740Z,99391.58
2023-04-02T13:51:37.126Z,99391.98
2023-04-02T13:54:10.092Z,99390.50
2023-04-02T13:56:42.193Z,99392.07
2023-04-02T13:59:11.084Z,99392.42
2023-04-02T14:01:42.177Z,99391.33
2023-04-02T14:04:11.792Z,99394.21
2023-04-02T14:06:44.513Z,99398.40
2023-04-02T14:09:33.577Z,99392.86
2023-04-02T14:12:11.975Z,99399.27
2023-04-02T14:14:56.552Z,99398.86
2023-04-02T14:17:26.693Z,99397.89
2023-04-02T14:20:10.274Z,99400.23
2023-04-02T14:22:42.076Z,99401.83
2023-04-02T14:25:33.155Z,99401.13
2023-04-02T14:28:05.895Z,99401.38
2023-04-02T14:30:50.284Z,99400.21
2023-04-02T14:33:30.174Z,99401.54
2023-04-02T14:36:11.818Z,99402.81
2023-04-02T14:38:42.395Z,99404.17
2023-04-02T14:41:12.475Z,99405.04
2023-04-02T14:43:46.114Z,99408.42
2023-04-02T14:46:17.247Z,99404.13
2023-04-02T14:48:54.752Z,99407.60
2023-04-02T14:51:24.762Z,99404.16
2023-04-02T14:54:03.545Z,99404.11
2023-04-02T14:56:42.312Z,99404.38
2023-04-02T14:59:11.281Z,99409.77
2023-04-02T15:01:41.629Z,99408.31
2023-04-02T15:04:13.052Z,99406.48
2023-04-02T15:06:46.570Z,99407.73
2023-04-02T15:09:21.212Z,99410.14
2023-04-02T15:11:52.763Z,99410.95
2023-04-02T15:14:30.234Z,99413.83
2023-04-02T15:17:01.623Z,99415.48
2023-04-02T15:19:31.071Z,99421.73
2023-04-02T15:22:16.313Z,99421.55
2023-04-02T15:24:49.015Z,99421.44
2023-04-02T15:27:25.803Z,99423.89
2023-04-02T15:30:09.431Z,99419.56
2023-04-02T15:32:40.267Z,99418.70
2023-04-02T15:35:24.544Z,99417.86
2023-04-02T15:37:59.291Z,99420.25
2023-04-02T15:40:51.271Z,99419.89
2023-04-02T15:43:38.972Z,99420.30
2023-04-02T15:46:08.231Z,99419.36
2023-04-02T15:48:37.126Z,99421.61
2023-04-02T15:51:09.794Z,99424.80
2023-04-02T15:53:52.792Z,99428.55
2023-04-02T15:56:47.472Z,99428.16
2023-04-02T15:59:31.133Z,99427.34
2023-04-02T16:02:01.966Z,99426.52
2023-04-02T16:04:51.564Z,99425.22
2023-04-02T16:07:47.054Z,99426.64
2023-04-02T16:10:40.346Z,99429.23
2023-04-02T16:13:16.716Z,99429.94
2023-04-02T16:15:56.614Z,99430.14
2023-04-02T16:18:43.937Z,99430.95
2023-04-02T16:21:44.081Z,99437.09
2023-04-02T16:24:20.874Z,99435.63
2023-04-02T16:26:53.348Z,99433.56
2023-04-02T16:29:28.217Z,99438.45
2023-04-02T16:32:04.047Z,99436.69
2023-04-02T16:35:14.975Z,99436.57
2023-04-02T16:37:50.761Z,99437.16
2023-04-02T16:40:29.134Z,99439.29
2023-04-02T16:43:10.034Z,99438.95
2023-04-02T16:45:42.611Z,99444.39
2023-04-02T16:48:26.413Z,99449.09
2023-04-02T16:51:14.877Z,99448.09
2023-04-02T16:54:02.827Z,99449.41
2023-04-02T16:56:37.603Z,99453.33
2023-04-02T16:59:21.078Z,99455.65
2023-04-02T17:02:09.236Z,99460.10
2023-04-02T17:04:57.820Z,99465.80
2023-04-02T17:07:34.321Z,99469.35
2023-04-02T17:10:16.515Z,99469.00
2023-04-02T17:12:47.637Z,99473.95
2023-04-02T17:15:24.898Z,99472.93
2023-04-02T17:18:18.115Z,99476.98
2023-04-02T17:20:49.987Z,99480.77
2023-04-02T17:23:19.681Z,99479.85
2023-04-02T17:26:02.639Z,99488.41
2023-04-02T17:28:37.195Z,99490.63
2023-04-02T17:31:12.504Z,99491.48
2023-04-02T17:33:43.170Z,99495.45
2023-04-02T17:36:16.630Z,99493.48
2023-04-02T17:39:05.562Z,99493.86
2023-04-02T17:41:36.012Z,99498.64
2023-04-02T17:44:15.494Z,99500.77
2023-04-02T17:46:47.094Z,99500.81
2023-04-02T17:49:23.322Z,99502.18
2023-04-02T17:51:52.500Z,99503.34
2023-04-02T17:54:36.638Z,99500.27
2023-04-02T17:57:06.036Z,99500.92
2023-04-02T17:59:47.602Z,99502.75
2023-04-02T18:02:24.976Z,99502.98
2023-04-02T18:05:13.163Z,99503.43
2023-04-02T18:07:49.403Z,99507.94
2023-04-02T18:10:30.600Z,99506.90
2023-04-02T18:13:02.577Z,99507.27
2023-04-02T18:15:35.654Z,99508.65
2023-04-02T18:18:04.944Z,99508.85
2023-04-02T18:20:38.241Z,99511.61
2023-04-02T18:23:11.494Z,99511.42
2023-04-02T18:26:01.189Z,99512.67
2023-04-02T18:28:31.156Z,99508.97
2023-04-02T18:31:19.466Z,99508.80
2023-04-02T18:34:00.676Z,99511.71
2023-04-02T18:36:41.615Z,99513.09
2023-04-02T18:39:13.595Z,99513.98
2023-04-02T18:41:52.082Z,99510.25
2023-04-02T18:44:40.136Z,99511.17
2023-04-02T18:47:15.536Z,99511.47
2023-04-02T18:49:46.676Z,99511.45
2023-04-02T18:52:16.850Z,99510.19
2023-04-02T18:55:01.262Z,99508.91
2023-04-02T18:57:34.291Z,99507.89
2023-04-02T19:00:05.060Z,99511.58
2023-04-02T19:02:35.664Z,99511.19
2023-04-02T19:05:05.155Z,99512.55
2023-04-02T19:07:36.704Z,99509.46
2023-04-02T19:10:08.640Z,99506.81
2023-04-02T19:12:37.915Z,99509.58
2023-04-02T19:15:18.113Z,99510.57
2023-04-02T19:17:55.210Z,99509.43
2023-04-02T19:20:29.634Z,99510.28
2023-04-02T19:23:11.640Z,99511.56
2023-04-02T19:25:40.703Z,99517.71
2023-04-02T19:28:23.076Z,99517.09
2023-04-02T19:30:57.880Z,99517.24
2023-04-02T19:33:31.073Z,99520.03
2023-04-02T19:36:09.135Z,99519.28
2023-04-02T19:39:13.594Z,99523.52
2023-04-02T19:41:58.293Z,99524.11
2023-04-02T19:44:28.046Z,99523.39
2023-04-02T19:46:57.024Z,99525.10
2023-04-02T19:49:32.996Z,99523.44
2023-04-02T19:52:07.732Z,99522.76
2023-04-02T19:54:38.474Z,99522.91
2023-04-02T19:57:07.481Z,99521.16
2023-04-02T19:59:38.927Z,99523.98
2023-04-02T20:02:11.346Z,99519.45
2023-04-02T20:04:43.237Z,99524.16
2023-04-02T20:07:15.416Z,99522.52
2023-04-02T20:09:44.446Z,99528.08
2023-04-02T20:12:13.293Z,99525.39
2023-04-02T20:14:43.384Z,99526.89
2023-04-02T20:17:12.158Z,99525.06
2023-04-02T20:19:41.413Z,99522.93
2023-04-02T20:22:11.174Z,99521.34
2023-04-02T20:24:41.684Z,99521.46
2023-04-02T20:27:14.019Z,99517.96
2023-04-02T20:29:49.088Z,99517.92
2023-04-02T20:32:20.629Z,99519.96
2023-04-02T20:34:49.700Z,99522.31
2023-04-02T20:37:18.611Z,99519.19
2023-04-02T20:39:47.440Z,99517.61
2023-04-02T20:42:18.832Z,99521.08
2023-04-02T20:44:47.870Z,99520.52
2023-04-02T20:47:17.763Z,99522.00
2023-04-02T20:49:46.483Z,99519.36
2023-04-02T20:52:15.232Z,99521.20
2023-04-02T20:54:44.097Z,99523.55
2023-04-02T20:57:14.394Z,99525.51
2023-04-02T20:59:44.348Z,99523.85
2023-04-02T21:02:17.362Z,99522.77
2023-04-02T21:04:47.792Z,99521.54
2023-04-02T21:07:17.192Z,99524.03
2023-04-02T21:09:46.984Z,99522.75
2023-04-02T21:12:17.948Z,99522.89
2023-04-02T21:14:49.403Z,99521.59
2023-04-02T21:17:25.957Z,99521.27
2023-04-02T21:19:54.973Z,99524.11
2023-04-02T21:22:27.131Z,99525.30
2023-04-02T21:24:55.788Z,99523.58
2023-04-02T21:27:27.132Z,99523.13
2023-04-02T21:29:58.835Z,99521.96
2023-04-02T21:32:33.688Z,99519.70
2023-04-02T21:35:03.459Z,99517.30
2023-04-02T21:37:32.553Z,99519.95
2023-04-02T21:40:01.700Z,99515.23
2023-04-02T21:42:31.740Z,99515.59
2023-04-02T21:45:05.743Z,99517.15
2023-04-02T21:47:38.130Z,99513.98
2023-04-02T21:50:10.180Z,99511.84
2023-04-02T21:52:40.060Z,99511.34
2023-04-02T21:55:09.725Z,99509.98
2023-04-02T21:57:38.659Z,99509.16
2023-04-02T22:00:12.877Z,99508.73
2023-04-02T22:02:42.469Z,99508.10
2023-04-02T22:05:15.753Z,99507.66
2023-04-02T22:07:44.569Z,99506.59
2023-04-02T22:10:22.506Z,99509.60
2023-04-02T23:13:21.279Z,99496.95
2023-04-02T23:15:54.353Z,99497.52
2023-04-02T23:18:38.570Z,99495.23
2023-04-02T23:21:18.785Z,99492.58
2023-04-02T23:23:52.035Z,99492.21
2023-04-02T23:26:31.790Z,99491.79
2023-04-02T23:29:05.176Z,99492.52
2023-04-02T23:31:38.683Z,99490.88
2023-04-02T23:34:10.793Z,99484.32
2023-04-02T23:36:58.980Z,99484.92
2023-04-02T23:39:33.362Z,99489.02
2023-04-02T23:42:08.584Z,99489.92
2023-04-02T23:44:50.679Z,99488.85
2023-04-02T23:47:26.160Z,99487.39
2023-04-02T23:50:11.844Z,99487.16
2023-04-02T23:52:43.761Z,99483.46
2023-04-02T23:55:24.461Z,99482.48
2023-04-02T23:58:01.359Z,99480.41
